Time;durP1;ratioP1;P1;durP2;ratioP2;P2;SDS_P1;SDS_P2;PMS_P1;PMS_P2;Temp;Humidity;BMP_temperature;BMP_pressure;BME280_temperature;BME280_humidity;BME280_pressure;Samples;Min_cycle;Max_cycle;Signal;HPM_P1;HPM_P2
2024/04/12 00:00:32;;;;;;;4.00;3.60;;;7.30;99.90;;;8.30;82.18;99547.16;11059061;26;20256;-62
2024/04/12 00:05:38;;;;;;;6.17;3.83;;;7.20;99.90;;;8.10;83.46;99535.13;11056183;26;20300;-63
2024/04/12 00:10:46;;;;;;;4.77;4.10;;;7.20;99.90;;;7.94;84.38;99529.34;11065396;26;20296;-63
2024/04/12 00:15:55;;;;;;;4.53;4.13;;;7.00;99.90;;;7.89;84.09;99530.53;11064613;26;20280;-61
2024/04/12 00:21:01;;;;;;;4.70;4.30;;;7.00;99.90;;;7.87;84.78;99516.78;11057823;26;20267;-63
2024/04/12 00:26:11;;;;;;;4.20;3.80;;;7.00;99.90;;;7.86;84.95;99513.31;11070880;26;20255;-62
2024/04/12 00:31:17;;;;;;;4.67;4.27;;;6.90;99.90;;;7.85;84.60;99520.84;11058264;26;20256;-61
2024/04/12 00:36:24;;;;;;;5.03;3.97;;;7.00;99.90;;;7.78;84.63;99514.25;11060937;26;20257;-63
2024/04/12 00:41:32;;;;;;;6.03;3.97;;;6.90;99.90;;;7.67;85.12;99520.88;11050490;26;20257;-62
2024/04/12 00:46:40;;;;;;;4.77;3.67;;;6.80;99.90;;;7.65;85.09;99501.13;11061215;26;20806;-61
2024/04/12 00:51:50;;;;;;;4.33;3.90;;;6.80;99.90;;;7.57;84.88;99512.22;11060641;26;20248;-63
2024/04/12 00:56:58;;;;;;;4.77;4.37;;;6.70;99.90;;;7.48;85.46;99507.16;11061161;26;20371;-62
2024/04/12 01:02:08;;;;;;;4.83;4.30;;;6.60;99.90;;;7.44;85.40;99512.72;11069639;26;20271;-62
2024/04/12 01:07:14;;;;;;;6.23;5.00;;;6.50;99.90;;;7.49;85.19;99508.94;11062524;26;20304;-62
2024/04/12 01:12:22;;;;;;;5.70;4.20;;;6.60;99.90;;;7.49;84.74;99508.94;11051383;26;20256;-60
2024/04/12 01:17:27;;;;;;;5.70;4.20;;;6.60;99.90;;;7.30;84.69;99505.41;11050133;26;20260;-62
2024/04/12 01:22:35;;;;;;;4.30;3.90;;;6.50;99.90;;;7.16;85.04;99499.88;11057312;26;20257;-62
2024/04/12 01:27:44;;;;;;;4.17;3.63;;;6.40;99.90;;;7.13;85.58;99489.41;11055143;26;20787;-62
2024/04/12 01:32:52;;;;;;;5.30;4.73;;;6.30;99.90;;;7.05;85.93;99495.41;11063096;26;20307;-62
2024/04/12 01:38:02;;;;;;;5.33;4.30;;;6.30;99.90;;;6.96;86.78;99497.06;11077861;26;20785;-62
2024/04/12 01:43:10;;;;;;;5.00;4.50;;;6.20;99.90;;;7.07;87.16;99506.63;11064035;26;20252;-62
2024/04/12 01:48:16;;;;;;;7.60;5.00;;;6.30;99.90;;;7.04;87.49;99502.84;11062089;26;20257;-63
2024/04/12 01:53:23;;;;;;;5.20;4.80;;;6.10;99.90;;;7.11;87.27;99501.06;11073110;26;20272;-62
2024/04/12 01:58:33;;;;;;;5.17;4.77;;;6.20;99.90;;;7.05;87.25;99497.94;11061814;26;20256;-62
2024/04/12 02:03:40;;;;;;;5.00;4.50;;;6.20;99.90;;;6.95;87.57;99502.88;11059137;26;20315;-62
2024/04/12 02:08:48;;;;;;;5.10;4.70;;;6.10;99.90;;;6.97;88.14;99499.72;11070513;26;20346;-63
2024/04/12 02:14:02;;;;;;;5.03;4.53;;;6.10;99.90;;;6.99;86.75;99500.78;11064289;26;20260;-63
2024/04/12 02:19:10;;;;;;;5.87;4.50;;;6.10;99.90;;;6.83;87.35;99519.47;11057975;26;20287;-62
2024/04/12 02:24:17;;;;;;;5.10;4.70;;;6.00;99.90;;;6.85;88.01;99517.97;11060542;26;20256;-63
2024/04/12 02:29:25;;;;;;;4.63;4.33;;;6.00;99.90;;;6.82;87.95;99525.31;11064701;26;20743;-63
2024/04/12 02:34:34;;;;;;;4.60;4.20;;;5.90;99.90;;;6.75;88.39;99532.31;11058586;26;20261;-63
2024/04/12 02:39:40;;;;;;;4.93;4.40;;;5.90;99.90;;;6.81;88.29;99528.56;11060492;26;20746;-63
2024/04/12 02:44:49;;;;;;;4.83;4.00;;;5.90;99.90;;;6.84;87.54;99524.72;11074198;26;20252;-63
2024/04/12 02:49:54;;;;;;;5.10;4.63;;;5.90;99.90;;;6.85;87.26;99538.31;11062919;26;20643;-63
2024/04/12 02:55:00;;;;;;;5.70;5.20;;;5.80;99.90;;;6.71;87.46;99529.31;11105044;21;20629;-60
2024/04/12 03:00:21;;;;;;;6.47;5.07;;;5.70;99.90;;;6.58;87.93;99529.75;11166050;26;20311;-61
2024/04/12 03:05:27;;;;;;;5.23;4.70;;;5.70;99.90;;;6.51;88.42;99529.88;11119460;26;20427;-61
2024/04/12 03:10:32;;;;;;;5.10;4.70;;;5.60;99.90;;;6.20;90.10;99525.91;11074295;26;20264;-61
2024/04/12 03:15:40;;;;;;;4.90;4.57;;;5.30;99.90;;;6.19;89.60;99524.13;11064795;26;20640;-60
2024/04/12 03:20:47;;;;;;;5.10;4.60;;;5.40;99.90;;;6.15;90.39;99525.44;11060691;26;20303;-59
2024/04/12 03:25:52;;;;;;;7.97;5.37;;;5.30;99.90;;;6.01;90.87;99525.66;11075135;26;20272;-62
2024/04/12 03:31:00;;;;;;;7.07;5.50;;;5.20;99.90;;;6.13;90.55;99519.31;11074828;26;20740;-61
2024/04/12 03:36:25;;;;;;;5.73;5.13;;;5.30;99.90;;;6.10;90.77;99524.09;11068512;26;20267;-60
2024/04/12 03:41:32;;;;;;;5.37;4.60;;;5.30;99.90;;;6.12;90.69;99526.75;11064216;26;20276;-62
2024/04/12 03:46:41;;;;;;;5.47;4.43;;;5.40;99.90;;;6.24;89.33;99525.50;11070685;26;20671;-61
2024/04/12 03:51:49;;;;;;;5.50;5.00;;;5.30;99.90;;;6.16;89.31;99527.25;11072594;26;20355;-60
2024/04/12 03:56:56;;;;;;;5.07;4.67;;;5.30;99.90;;;6.15;89.17;99527.97;11068455;26;20283;-62
2024/04/12 04:02:09;;;;;;;6.13;4.90;;;5.20;99.90;;;5.78;88.70;99519.16;11075799;26;20310;-62
2024/04/12 04:07:16;;;;;;;4.30;4.00;;;5.00;99.90;;;5.67;90.48;99519.69;11091358;26;20247;-62
2024/04/12 04:12:24;;;;;;;5.80;4.97;;;4.90;99.90;;;5.67;90.41;99528.94;11074116;26;20253;-63
2024/04/12 04:17:33;;;;;;;6.33;4.60;;;4.90;99.90;;;5.75;90.59;99528.97;11063983;26;20255;-61
2024/04/12 04:22:42;;;;;;;5.73;5.23;;;4.90;99.90;;;5.69;91.06;99535.94;11076411;26;20646;-62
2024/04/12 04:27:48;;;;;;;5.33;4.90;;;4.80;99.90;;;5.68;91.09;99540.88;11076645;26;20783;-62
2024/04/12 04:32:59;;;;;;;6.60;5.60;;;4.80;99.90;;;5.78;90.84;99539.44;11068378;26;20257;-63
2024/04/12 04:38:06;;;;;;;5.20;4.77;;;4.90;99.90;;;5.68;90.42;99546.84;11075431;26;20255;-63
2024/04/12 04:43:12;;;;;;;5.77;5.23;;;4.80;99.90;;;5.71;90.24;99548.78;11067991;26;20260;-63
2024/04/12 04:48:22;;;;;;;5.43;5.03;;;4.80;99.90;;;5.69;90.95;99543.53;11067729;26;20254;-62
2024/04/12 04:53:29;;;;;;;5.77;5.27;;;4.80;99.90;;;5.79;90.34;99535.25;11074883;26;20258;-61
2024/04/12 04:58:35;;;;;;;5.37;4.87;;;4.80;99.90;;;5.78;90.37;99534.38;11063897;26;20262;-59
2024/04/12 05:03:43;;;;;;;6.53;5.50;;;5.00;99.90;;;5.90;90.66;99538.91;11069960;26;20258;-60
2024/04/12 05:08:48;;;;;;;7.10;5.80;;;5.10;99.90;;;5.94;90.15;99536.84;11063152;26;20372;-62
2024/04/12 05:13:55;;;;;;;5.57;5.07;;;5.10;99.90;;;6.10;90.22;99539.31;11064750;26;20617;-60
2024/04/12 05:19:08;;;;;;;6.43;5.60;;;5.20;99.90;;;6.19;89.95;99541.91;11075271;26;20260;-62
2024/04/12 05:24:14;;;;;;;7.30;5.93;;;5.30;99.90;;;6.43;89.25;99546.00;11049699;26;20265;-60
2024/04/12 05:29:19;;;;;;;6.50;5.90;;;5.60;99.90;;;6.74;87.78;99540.69;11061041;26;20865;-62
2024/04/12 05:34:31;;;;;;;6.17;5.63;;;5.80;99.90;;;6.99;87.70;99540.56;11073796;26;20763;-62
2024/04/12 05:39:41;;;;;;;6.00;5.50;;;6.10;99.90;;;7.16;85.98;99539.66;11059520;26;20261;-62
2024/04/12 05:44:52;;;;;;;6.83;6.23;;;6.20;99.90;;;7.31;86.14;99546.22;11068059;26;20664;-63
2024/04/12 05:50:02;;;;;;;6.27;5.67;;;6.30;99.90;;;7.58;85.08;99548.00;11071438;26;20291;-62
2024/04/12 05:55:13;;;;;;;6.60;6.00;;;6.70;99.90;;;7.79;83.52;99541.50;11072297;26;20251;-62
2024/04/12 06:00:23;;;;;;;7.30;6.27;;;6.90;99.90;;;8.19;83.67;99549.47;11071214;26;20299;-63
2024/04/12 06:05:33;;;;;;;7.53;6.40;;;7.30;99.90;;;8.74;82.06;99540.19;11062600;26;20299;-62
2024/04/12 06:10:39;;;;;;;7.20;6.33;;;7.90;99.90;;;9.39;78.38;99552.00;11057651;26;20824;-63
2024/04/12 06:15:45;;;;;;;5.77;5.33;;;8.40;99.90;;;10.71;73.97;99548.06;11067313;26;20256;-62
2024/04/12 06:20:55;;;;;;;6.37;5.77;;;9.20;99.90;;;11.15;69.10;99540.63;11074373;26;20312;-63
2024/04/12 06:26:00;;;;;;;6.73;6.10;;;9.60;99.90;;;11.26;70.10;99547.50;11075149;26;20314;-64
2024/04/12 06:31:06;;;;;;;6.68;5.63;;;9.60;99.90;;;11.73;67.61;99532.53;11078912;26;20278;-63
2024/04/12 06:36:16;;;;;;;6.47;5.88;;;9.90;99.90;;;11.35;69.58;99556.72;11062355;26;20303;-61
2024/04/12 06:41:23;;;;;;;8.93;6.03;;;9.70;99.90;;;12.10;67.38;99561.09;11075607;26;20251;-63
2024/04/12 06:46:31;;;;;;;6.18;5.57;;;10.50;99.90;;;13.01;63.76;99556.06;11080274;26;20256;-63
2024/04/12 06:52:02;;;;;;;6.75;6.07;;;11.20;99.90;;;13.40;61.17;99556.38;11068045;26;20307;-63
2024/04/12 06:57:08;;;;;;;7.82;5.72;;;11.60;99.90;;;13.86;59.62;99552.91;11072252;26;20255;-63
2024/04/12 07:02:14;;;;;;;7.55;5.68;;;12.00;99.90;;;14.32;57.58;99556.13;11071664;26;20315;-63
2024/04/12 07:07:28;;;;;;;6.75;6.05;;;12.20;99.90;;;14.67;56.58;99557.69;11071603;26;20299;-65
2024/04/12 07:12:34;;;;;;;6.70;5.75;;;12.70;99.90;;;14.98;55.71;99564.94;11064152;26;20260;-64
2024/04/12 07:17:40;;;;;;;6.05;5.60;;;12.80;99.90;;;15.98;53.94;99559.47;11066440;26;20357;-63
2024/04/12 07:22:49;;;;;;;5.70;5.05;;;13.50;99.90;;;16.96;50.94;99559.44;11057923;26;20351;-63
2024/04/12 07:27:55;;;;;;;7.35;6.45;;;14.40;99.90;;;17.53;48.93;99549.00;11068366;26;20256;-61
2024/04/12 07:33:05;;;;;;;6.85;6.00;;;14.90;99.70;;;17.01;50.12;99548.59;11072112;26;20259;-62
2024/04/12 07:38:14;;;;;;;6.72;6.13;;;14.90;99.80;;;16.80;52.53;99543.06;11078734;26;20248;-64
2024/04/12 07:43:23;;;;;;;6.60;6.00;;;15.00;99.90;;;17.37;49.89;99543.78;11073010;26;20260;-63
2024/04/12 07:48:28;;;;;;;7.70;6.90;;;15.70;98.00;;;16.86;50.36;99542.53;11074884;26;20301;-63
2024/04/12 07:53:40;;;;;;;8.15;6.78;;;15.30;97.90;;;17.53;50.29;99541.25;11063879;26;20303;-65
2024/04/12 07:59:01;;;;;;;6.97;6.28;;;16.20;97.10;;;18.08;49.23;99547.75;11054214;26;20260;-66
2024/04/12 08:04:15;;;;;;;6.43;5.53;;;16.90;95.90;;;18.29;49.06;99543.75;11069854;26;20378;-64
2024/04/12 08:09:25;;;;;;;7.35;6.47;;;17.20;95.60;;;18.38;48.58;99533.00;11070061;26;20260;-67
2024/04/12 08:14:33;;;;;;;8.82;5.63;;;17.30;94.70;;;18.74;48.26;99533.16;11071629;26;20275;-65
2024/04/12 08:19:45;;;;;;;6.63;5.95;;;17.70;94.40;;;19.12;47.97;99517.88;11072310;26;20259;-65
2024/04/12 08:24:54;;;;;;;8.15;7.03;;;18.10;94.20;;;19.36;45.58;99518.19;11063817;26;20291;-66
2024/04/12 08:29:59;;;;;;;7.80;6.47;;;18.40;91.70;;;19.41;46.32;99504.56;11066954;26;20252;-65
2024/04/12 08:35:08;;;;;;;7.57;6.68;;;18.40;92.80;;;19.45;46.55;99506.47;11075171;26;20302;-65
2024/04/12 08:40:19;;;;;;;9.30;6.78;;;18.60;92.70;;;19.32;48.48;99494.63;11061637;26;20294;-64
2024/04/12 08:45:36;;;;;;;7.38;6.68;;;18.60;93.40;;;19.38;48.63;99494.94;11059997;26;20380;-65
2024/04/12 08:50:48;;;;;;;6.40;5.82;;;18.50;93.70;;;19.99;46.23;99481.38;11060071;26;20267;-65
2024/04/12 08:56:01;;;;;;;7.25;6.55;;;19.00;91.90;;;19.80;46.56;99488.34;11096733;21;20301;-61
2024/04/12 09:01:07;;;;;;;8.23;7.45;;;18.80;91.80;;;20.00;45.92;99486.66;11172238;26;20745;-62
2024/04/12 09:06:22;;;;;;;7.97;7.18;;;19.10;91.40;;;20.06;47.08;99482.53;11161247;26;20251;-62
2024/04/12 09:11:32;;;;;;;8.93;7.45;;;19.20;92.10;;;20.27;45.82;99483.53;11135502;26;20260;-62
2024/04/12 09:16:44;;;;;;;7.72;6.63;;;19.30;91.70;;;20.48;45.91;99478.38;11135921;26;20952;-62
2024/04/12 09:21:58;;;;;;;8.48;6.68;;;19.80;90.90;;;21.08;43.84;99478.38;11132862;26;20281;-61
2024/04/12 09:27:09;;;;;;;8.35;6.95;;;20.40;88.00;;;21.51;41.99;99490.56;11133145;26;20256;-62
2024/04/12 09:37:43;;;;;;;6.97;6.18;;;20.70;84.10;;;21.79;40.69;99498.63;11131271;26;20259;-62
2024/04/12 09:43:24;;;;;;;7.13;6.53;;;21.10;80.10;;;21.69;40.90;99485.19;11127276;26;20579;-61
2024/04/12 10:42:31;;;;;;;6.20;4.70;;;21.20;72.90;;;22.02;38.30;99442.22;11142213;26;20259;-62
2024/04/12 10:47:39;;;;;;;5.85;5.25;;;21.40;73.90;;;22.28;37.19;99442.31;11140020;26;20297;-63
2024/04/12 10:52:45;;;;;;;6.40;4.90;;;21.70;71.50;;;22.32;37.87;99433.78;11141343;26;21213;-62
2024/04/12 10:57:51;;;;;;;7.03;4.97;;;21.70;73.10;;;22.40;37.23;99421.00;11146410;26;20247;-61
2024/04/12 11:03:14;;;;;;;4.72;3.78;;;21.90;72.30;;;22.01;38.10;99421.34;11153191;26;20841;-61
2024/04/12 11:08:25;;;;;;;4.35;3.72;;;21.30;73.80;;;22.17;37.96;99420.16;11154138;26;20243;-60
2024/04/12 11:13:35;;;;;;;4.47;3.90;;;21.50;72.50;;;22.24;36.66;99414.38;11146252;26;20251;-60
2024/04/12 11:34:52;;;;;;;6.20;3.97;;;21.50;70.70;;;22.31;35.84;99402.47;11152941;26;20260;-62
2024/04/12 11:39:58;;;;;;;3.90;3.50;;;21.50;69.40;;;22.75;34.63;99393.56;11161726;26;20313;-63
2024/04/12 11:45:03;;;;;;;6.35;3.83;;;21.80;66.90;;;22.60;35.09;99380.00;11138656;26;20307;-62
2024/04/12 11:50:13;;;;;;;4.28;3.60;;;21.80;68.30;;;22.51;36.84;99383.19;11135373;26;20260;-63
2024/04/12 11:55:21;;;;;;;5.15;4.38;;;21.60;71.00;;;22.67;36.38;99379.38;11152437;26;20263;-62
2024/04/12 12:00:27;;;;;;;4.65;4.10;;;21.90;70.10;;;22.72;36.17;99362.19;11141353;26;20644;-62
2024/04/12 12:05:37;;;;;;;5.47;3.90;;;21.90;69.10;;;22.86;35.70;99352.19;11149763;26;20254;-60
2024/04/12 12:10:45;;;;;;;4.88;3.38;;;21.90;69.70;;;22.41;37.08;99340.31;11151504;26;20317;-61
2024/04/12 12:15:51;;;;;;;5.00;3.42;;;21.90;70.70;;;22.27;37.75;99337.22;11156897;26;20326;-61
2024/04/12 12:20:59;;;;;;;4.30;3.17;;;21.60;71.70;;;22.41;37.27;99332.47;11165590;26;20318;-61
2024/04/12 12:26:08;;;;;;;3.75;2.90;;;21.60;71.20;;;22.48;36.55;99326.63;11161665;26;20267;-62
2024/04/12 12:31:17;;;;;;;3.90;3.03;;;21.70;70.00;;;22.40;37.00;99332.41;11166204;26;20250;-61
2024/04/12 12:36:27;;;;;;;4.35;2.78;;;21.50;70.40;;;22.35;36.97;99320.94;11141477;26;20787;-61
2024/04/12 12:41:35;;;;;;;6.55;3.22;;;21.60;70.90;;;22.36;37.33;99305.38;11148000;26;20250;-61
2024/04/12 12:46:41;;;;;;;5.18;3.03;;;21.60;72.10;;;22.25;37.37;99299.81;11139337;26;20255;-60
2024/04/12 12:51:50;;;;;;;5.15;2.97;;;21.40;71.50;;;22.67;35.87;99306.41;11151564;26;20267;-61
2024/04/12 12:56:57;;;;;;;4.95;3.20;;;21.90;69.00;;;22.38;35.25;99298.50;11146003;26;20779;-61
2024/04/12 13:02:03;;;;;;;4.20;2.42;;;21.50;68.00;;;22.21;36.48;99304.88;11143022;26;20738;-61
2024/04/12 13:07:13;;;;;;;3.53;2.58;;;21.40;69.80;;;22.40;35.97;99291.59;11153457;26;20778;-61
2024/04/12 13:12:18;;;;;;;4.38;2.83;;;21.50;68.60;;;22.29;36.10;99294.69;11163036;26;20390;-61
2024/04/12 13:17:24;;;;;;;3.42;2.47;;;21.50;69.10;;;22.47;34.90;99288.38;11151249;26;20267;-61
2024/04/12 13:22:32;;;;;;;3.55;2.42;;;21.70;66.50;;;22.40;34.56;99275.09;11153599;26;20315;-61
2024/04/12 13:27:40;;;;;;;3.85;2.33;;;21.50;65.60;;;22.44;33.66;99270.03;11151643;26;20309;-61
2024/04/12 13:32:48;;;;;;;4.25;2.53;;;21.70;63.50;;;22.38;34.39;99272.47;11146820;26;20558;-62
2024/04/12 13:37:56;;;;;;;3.05;2.25;;;21.70;65.70;;;22.55;33.80;99266.88;11157738;26;20254;-62
2024/04/12 13:43:02;;;;;;;3.28;2.08;;;21.60;65.30;;;22.46;34.93;99249.22;11144745;26;20250;-63
2024/04/12 13:53:38;;;;;;;3.70;2.00;;;21.50;65.90;;;22.20;35.72;99245.78;11150799;26;20597;-61
2024/04/12 13:58:43;;;;;;;4.80;2.70;;;21.40;68.10;;;22.50;36.38;99243.31;11146629;26;20250;-59
2024/04/12 14:03:49;;;;;;;3.83;2.10;;;21.60;69.00;;;22.61;36.77;99248.84;11142865;26;20780;-61
2024/04/12 14:09:00;;;;;;;3.42;2.75;;;21.90;69.40;;;22.75;35.59;99242.34;11149664;26;20328;-61
2024/04/12 14:14:05;;;;;;;3.45;2.40;;;22.00;67.00;;;22.59;36.08;99235.75;11150596;26;20620;-63
2024/04/12 14:19:17;;;;;;;5.53;2.83;;;21.90;68.10;;;22.40;36.49;99230.78;11136830;26;20762;-62
2024/04/12 14:29:52;;;;;;;4.00;2.70;;;21.60;66.70;;;22.29;36.82;99211.31;11154026;26;20613;-61
2024/04/12 14:34:58;;;;;;;6.65;3.30;;;21.50;70.00;;;22.71;34.48;99209.19;11136491;26;20302;-62
2024/04/12 14:40:21;;;;;;;5.75;4.50;;;21.70;67.10;;;22.30;36.21;99210.50;11145293;26;20290;-62
2024/04/12 14:45:27;;;;;;;7.15;4.35;;;21.50;68.10;;;22.10;37.15;99197.69;11149959;26;20322;-61
2024/04/12 14:50:33;;;;;;;6.38;5.22;;;21.30;70.00;;;22.08;36.35;99201.06;11135466;26;20747;-61
2024/04/12 14:55:46;;;;;;;6.43;4.60;;;21.30;69.10;;;22.20;38.11;99193.69;11155135;21;20256;-62
2024/04/12 15:00:53;;;;;;;9.15;5.82;;;21.40;72.00;;;22.55;37.71;99202.63;11105347;26;20256;-62
2024/04/12 15:49:06;;;;;;;8.77;6.50;;;20.70;71.80;;;21.37;39.55;99180.44;11047495;26;20302;-62
2024/04/12 15:54:11;;;;;;;10.90;6.95;;;20.50;74.80;;;21.31;39.63;99181.06;11044489;26;20257;-64
2024/04/12 16:15:26;;;;;;;8.82;5.57;;;20.20;76.90;;;20.95;40.16;99170.22;11037476;26;20290;-62
2024/04/12 16:20:33;;;;;;;7.35;4.90;;;20.10;76.10;;;20.95;40.95;99170.22;11019389;26;20744;-61
2024/04/12 16:25:39;;;;;;;7.20;4.95;;;20.10;77.90;;;20.84;40.96;99168.94;11018681;26;20262;-62
2024/04/12 16:31:00;;;;;;;6.13;4.40;;;20.00;76.60;;;20.76;40.88;99172.97;11017727;26;20312;-62
2024/04/12 16:36:11;;;;;;;5.22;3.58;;;19.90;76.40;;;20.72;40.21;99169.38;11014809;26;20726;-62
2024/04/12 16:41:18;;;;;;;4.43;3.35;;;19.90;76.30;;;20.67;41.44;99171.78;11014205;26;20261;-61
2024/04/12 16:46:26;;;;;;;4.03;3.10;;;19.80;78.10;;;20.60;41.03;99166.28;11016596;26;20317;-62
2024/04/12 16:51:32;;;;;;;4.13;2.63;;;19.70;76.90;;;20.55;40.71;99173.91;11017026;26;20261;-62
2024/04/12 16:56:38;;;;;;;5.05;2.60;;;19.60;77.10;;;20.40;40.25;99165.47;11020993;26;20253;-62
2024/04/12 17:01:46;;;;;;;2.85;2.47;;;19.50;75.90;;;20.28;40.38;99165.00;11018722;26;20288;-62
2024/04/12 17:06:54;;;;;;;2.55;2.20;;;19.40;74.90;;;20.20;39.79;99165.59;11018725;26;20307;-62
2024/04/12 17:12:00;;;;;;;4.05;2.35;;;19.30;75.30;;;20.06;40.67;99164.16;11014474;26;20264;-61
2024/04/12 17:17:08;;;;;;;2.45;2.00;;;19.20;75.40;;;19.92;40.81;99161.00;11013738;26;20288;-61
2024/04/12 17:22:14;;;;;;;3.08;1.98;;;19.00;75.60;;;19.83;40.86;99164.91;11007846;26;20256;-62
2024/04/12 17:27:19;;;;;;;4.55;1.92;;;18.90;77.20;;;19.72;42.07;99167.94;11018649;26;20733;-62
2024/04/12 17:32:36;;;;;;;2.03;1.85;;;18.80;79.20;;;19.59;43.10;99156.13;11018018;26;20268;-62
2024/04/12 17:37:42;;;;;;;3.92;1.92;;;18.60;82.60;;;19.43;44.35;99158.00;11002219;26;20766;-62
2024/04/12 17:42:48;;;;;;;2.60;2.10;;;18.50;86.40;;;19.25;45.27;99160.69;11009632;26;20355;-62
2024/04/12 17:47:57;;;;;;;3.47;2.20;;;18.30;88.80;;;19.09;45.95;99161.72;11015751;26;20249;-62
2024/04/12 17:53:02;;;;;;;2.33;2.10;;;18.10;88.60;;;18.92;46.43;99166.16;11016758;26;20264;-62
2024/04/12 17:58:09;;;;;;;3.17;2.10;;;17.90;88.00;;;18.71;46.10;99170.31;11019490;26;20376;-61
2024/04/12 18:03:17;;;;;;;3.10;2.20;;;17.70;89.10;;;18.41;47.74;99171.56;11005886;26;20316;-62
2024/04/12 18:08:26;;;;;;;2.75;1.80;;;17.30;91.00;;;18.21;47.73;99177.47;11025391;26;20304;-62
2024/04/12 18:13:31;;;;;;;5.18;2.80;;;17.10;91.10;;;17.95;49.37;99183.97;11011962;26;20254;-62
2024/04/12 18:18:40;;;;;;;5.32;2.47;;;17.00;93.50;;;17.67;52.12;99184.28;11024797;26;20260;-62
2024/04/12 18:23:47;;;;;;;2.80;2.47;;;16.60;96.00;;;17.40;53.24;99189.81;11007100;26;20260;-63
2024/04/12 18:28:54;;;;;;;4.78;2.35;;;16.40;97.20;;;17.22;55.11;99197.47;11003450;26;20686;-62
2024/04/12 18:34:06;;;;;;;3.00;2.80;;;16.20;99.40;;;16.98;56.67;99203.94;11007389;26;20308;-61
2024/04/12 18:49:58;;;;;;;4.40;2.60;;;15.50;99.70;;;16.34;57.08;99196.09;11010994;26;20268;-63
2024/04/12 18:55:04;;;;;;;3.65;2.47;;;15.30;99.90;;;16.20;57.21;99203.09;10997707;26;20265;-62
2024/04/12 19:00:13;;;;;;;2.33;2.05;;;15.20;99.90;;;16.08;57.72;99212.69;11009328;26;20264;-63
2024/04/12 19:05:21;;;;;;;5.20;2.50;;;15.10;99.90;;;15.86;59.65;99218.31;11001262;26;20340;-62
2024/04/12 19:10:27;;;;;;;4.00;2.95;;;14.80;99.90;;;15.57;61.04;99219.13;11009619;26;20312;-62
2024/04/12 19:15:32;;;;;;;4.18;3.00;;;14.50;99.90;;;15.48;62.54;99214.31;11004746;26;20261;-62
2024/04/12 19:20:45;;;;;;;4.63;2.92;;;14.50;99.90;;;15.36;63.09;99222.22;11004778;26;20264;-62
2024/04/12 19:25:54;;;;;;;4.10;2.55;;;14.40;99.90;;;15.16;63.74;99223.59;10999780;26;20298;-62
2024/04/12 19:31:04;;;;;;;4.82;2.50;;;14.10;99.90;;;15.07;63.76;99234.22;11003609;26;20251;-62
2024/04/12 19:36:14;;;;;;;2.97;2.20;;;14.10;99.90;;;14.90;63.16;99231.41;11002185;26;20265;-62
2024/04/12 19:41:19;;;;;;;2.38;2.17;;;13.90;99.90;;;14.80;63.55;99235.09;11017237;26;20257;-61
2024/04/12 19:46:25;;;;;;;3.22;2.22;;;13.80;99.90;;;14.65;64.60;99229.88;11013822;26;20616;-62
2024/04/12 19:51:33;;;;;;;3.08;2.17;;;13.60;99.90;;;14.58;64.40;99238.00;11019970;26;20306;-63
2024/04/12 19:56:39;;;;;;;3.15;2.45;;;13.60;99.90;;;14.43;65.41;99238.75;11042117;26;20268;-62
2024/04/12 20:01:45;;;;;;;4.95;2.75;;;13.40;99.90;;;14.36;64.99;99244.28;11068899;26;20352;-62
2024/04/12 20:06:54;;;;;;;3.22;2.80;;;13.30;99.90;;;14.12;66.14;99250.44;11058348;26;20260;-63
2024/04/12 20:11:59;;;;;;;3.78;2.72;;;13.10;99.90;;;13.98;67.02;99246.94;11063532;26;20601;-63
2024/04/12 20:17:07;;;;;;;6.07;3.75;;;13.00;99.90;;;13.73;69.28;99249.56;11054454;26;20256;-62
2024/04/12 20:22:15;;;;;;;3.53;3.22;;;12.70;99.90;;;13.61;69.22;99244.50;11054603;26;20257;-62
2024/04/12 20:27:22;;;;;;;7.20;3.63;;;12.70;99.90;;;13.64;69.97;99238.66;11065182;26;20618;-62
2024/04/12 20:32:36;;;;;;;4.70;3.53;;;12.60;99.90;;;13.55;69.94;99235.47;11075790;26;20782;-63
2024/04/12 20:37:45;;;;;;;3.75;3.20;;;12.60;99.90;;;13.44;71.12;99238.19;11066175;26;20271;-63
2024/04/12 20:42:51;;;;;;;3.42;3.15;;;12.50;99.90;;;13.35;71.18;99240.16;11061613;26;20256;-64
2024/04/12 20:47:56;;;;;;;3.25;2.90;;;12.50;99.90;;;13.43;71.99;99241.56;11055483;26;20311;-63
2024/04/12 20:53:04;;;;;;;3.95;3.55;;;12.60;99.90;;;13.34;72.96;99232.34;11054065;26;20252;-62
2024/04/12 20:58:10;;;;;;;4.03;3.60;;;12.40;99.90;;;13.26;73.11;99236.97;11064114;26;20258;-65
2024/04/12 21:03:15;;;;;;;3.60;3.30;;;12.30;99.90;;;13.12;73.77;99241.09;11067115;26;20747;-61
2024/04/12 21:08:24;;;;;;;3.88;3.58;;;12.20;99.90;;;13.01;73.91;99231.75;11060666;26;20248;-62
2024/04/12 21:13:30;;;;;;;4.80;4.15;;;12.10;99.90;;;12.95;73.37;99227.09;11054032;26;20261;-61
2024/04/12 21:18:36;;;;;;;4.60;4.20;;;12.00;99.90;;;12.77;73.64;99230.94;11055095;26;20269;-62
2024/04/12 21:23:45;;;;;;;4.10;3.70;;;11.90;99.90;;;12.57;74.99;99216.72;11043086;26;20295;-62
2024/04/12 21:28:50;;;;;;;5.88;4.20;;;11.80;99.90;;;12.37;75.62;99225.53;11063872;26;20288;-62
2024/04/12 21:33:56;;;;;;;3.90;3.60;;;11.50;99.90;;;12.38;74.93;99219.63;11050647;26;20255;-60
2024/04/12 21:39:05;;;;;;;4.68;4.20;;;11.50;99.90;;;12.39;74.37;99218.88;11071405;26;20258;-63
2024/04/12 21:44:11;;;;;;;3.90;3.50;;;11.50;99.90;;;12.36;74.34;99221.19;11063960;26;20390;-63
2024/04/12 21:49:16;;;;;;;4.43;3.97;;;11.50;99.90;;;12.40;74.73;99218.97;11051714;26;20315;-63
2024/04/12 21:54:25;;;;;;;4.35;3.95;;;11.60;99.90;;;12.36;75.49;99216.06;11044235;26;20613;-63
2024/04/12 21:59:30;;;;;;;4.72;4.03;;;11.40;99.90;;;12.28;76.49;99217.19;11051312;26;20311;-61
2024/04/12 22:04:36;;;;;;;5.50;4.45;;;11.40;99.90;;;12.16;76.93;99228.34;11032188;26;20265;-62
2024/04/12 22:09:44;;;;;;;5.22;4.32;;;11.30;99.90;;;12.03;78.21;99214.50;11049006;26;20748;-62
2024/04/12 22:14:49;;;;;;;4.88;4.40;;;11.10;99.90;;;12.04;78.57;99224.88;11058041;26;20358;-63
2024/04/12 22:19:55;;;;;;;7.45;3.97;;;11.10;99.90;;;11.98;78.74;99233.78;11054762;26;20257;-62
2024/04/12 22:25:03;;;;;;;4.38;4.00;;;11.00;99.90;;;11.76;79.64;99226.13;11047616;26;20265;-62
2024/04/12 22:30:11;;;;;;;5.13;4.13;;;10.80;99.90;;;11.62;80.11;99233.69;11035913;26;23159;-62
2024/04/12 22:35:16;;;;;;;4.60;4.10;;;10.60;99.90;;;11.63;79.97;99230.34;11023433;26;20865;-63
2024/04/12 22:40:27;;;;;;;4.43;4.03;;;10.60;99.90;;;11.60;79.83;99227.56;11021311;26;20733;-63
2024/04/12 22:45:33;;;;;;;4.68;4.28;;;10.60;99.90;;;11.53;79.43;99225.28;11021047;26;20260;-63
2024/04/12 22:50:39;;;;;;;5.38;3.80;;;10.50;99.90;;;11.38;80.19;99229.28;11014781;26;20668;-63
2024/04/12 22:55:47;;;;;;;5.80;4.38;;;10.40;99.90;;;11.20;81.36;99219.41;11020992;26;20296;-62
2024/04/12 23:00:52;;;;;;;4.05;3.58;;;10.30;99.90;;;11.18;81.31;99220.97;11028715;26;20297;-62
2024/04/12 23:06:00;;;;;;;5.00;4.53;;;10.20;99.90;;;11.16;81.00;99217.41;11048317;26;20257;-63
2024/04/12 23:11:08;;;;;;;4.10;3.80;;;10.20;99.90;;;11.16;81.24;99222.53;11044415;26;20290;-63
2024/04/12 23:16:17;;;;;;;5.22;4.65;;;10.30;99.90;;;11.06;82.28;99222.59;11050185;26;20295;-63
2024/04/12 23:21:22;;;;;;;4.43;4.03;;;10.20;99.90;;;11.07;81.66;99214.13;11047257;26;22806;-63
2024/04/12 23:26:31;;;;;;;5.25;4.60;;;10.20;99.90;;;10.93;82.50;99207.06;11045840;26;20780;-62
2024/04/12 23:31:36;;;;;;;4.40;4.00;;;10.00;99.90;;;10.94;82.67;99208.84;11038883;26;20752;-61
2024/04/12 23:36:42;;;;;;;6.15;4.70;;;10.00;99.90;;;10.86;82.75;99194.59;11041299;26;20374;-63
2024/04/12 23:41:50;;;;;;;5.80;4.70;;;9.90;99.90;;;10.78;83.08;99196.53;11036841;26;20295;-62
2024/04/12 23:46:55;;;;;;;4.45;4.13;;;9.90;99.90;;;10.74;82.99;99189.41;11036769;26;20588;-60
2024/04/12 23:52:01;;;;;;;5.20;4.80;;;9.80;99.90;;;10.65;83.91;99199.81;11043841;26;20256;-62
2024/04/12 23:57:10;;;;;;;4.40;4.10;;;9.70;99.90;;;10.58;83.55;99194.97;11046801;26;20916;-61
